Terminal Aerodrome Forecast
Issued by NWS

Home | Current Version | Previous Version | Text Only | Print | Product List | Glossary On
Versions: 1 2 3 4 5 6 7 8 9 10 11 12 13 14 15 16 17 18
409
FTUS46 KMTR 051720
TAFMRY
TAF
KMRY 051720Z 0518/0618 00000KT 1/4SM FG VV001
     FM051830 28007KT P6SM SCT008 BKN200
     FM060100 27005KT P6SM BKN200
     FM060400 20004KT P6SM OVC006
     FM061400 16010KT P6SM SCT006=

USA.gov is the U.S. government's official web portal to all federal, state and local government web resources and services.